createdAt,value
2019-05-16T00:00:43.896Z,1005.34
2019-05-16T00:01:45.579Z,1005.31
2019-05-16T00:02:53.952Z,1005.38
2019-05-16T00:03:52.157Z,1005.34
2019-05-16T00:04:54.135Z,1005.38
2019-05-16T00:05:58.251Z,1005.35
2019-05-16T00:06:59.576Z,1005.37
2019-05-16T00:07:59.031Z,1005.26
2019-05-16T00:09:03.798Z,1005.37
2019-05-16T00:10:01.742Z,1005.35
2019-05-16T00:11:00.357Z,1005.29
2019-05-16T00:12:05.815Z,1005.34
2019-05-16T00:13:09.495Z,1005.31
2019-05-16T00:14:09.866Z,1005.34
2019-05-16T00:15:10.624Z,1005.32
2019-05-16T00:16:12.697Z,1005.28
2019-05-16T00:17:14.790Z,1005.29
2019-05-16T00:18:13.364Z,1005.28
2019-05-16T00:19:13.485Z,1005.2
2019-05-16T00:20:12.141Z,1005.22
2019-05-16T00:21:10.050Z,1005.19
2019-05-16T00:22:10.285Z,1005.22
2019-05-16T00:23:08.427Z,1005.16
2019-05-16T00:24:09.043Z,1005.17
2019-05-16T00:25:08.952Z,1005.22
2019-05-16T00:26:07.979Z,1005.14
2019-05-16T00:27:08.467Z,1005.13
2019-05-16T00:28:08.821Z,1005.17
2019-05-16T00:29:08.046Z,1005.19
2019-05-16T00:30:08.953Z,1005.09
2019-05-16T00:31:08.423Z,1005.16
2019-05-16T00:32:09.687Z,1005.22
2019-05-16T00:33:12.738Z,1005.16
2019-05-16T00:34:10.507Z,1005.14
2019-05-16T00:35:13.517Z,1005.16
2019-05-16T00:36:12.205Z,1005.16
2019-05-16T00:37:12.017Z,1005.16
2019-05-16T00:38:11.254Z,1005.19
2019-05-16T00:39:13.029Z,1005.11
2019-05-16T00:40:11.420Z,1005.1
2019-05-16T00:41:09.515Z,1005.07
2019-05-16T00:42:08.855Z,1005.14
2019-05-16T00:43:08.042Z,1005.1
2019-05-16T00:44:12.445Z,1005.01
2019-05-16T00:45:13.281Z,1005.16
2019-05-16T00:46:09.708Z,1005.04
2019-05-16T00:47:08.763Z,1005.06
2019-05-16T00:48:09.165Z,1005.04
2019-05-16T00:49:18.723Z,1005.04
2019-05-16T00:50:18.277Z,1005
2019-05-16T00:51:14.699Z,1004.98
2019-05-16T00:52:18.240Z,1005.03
2019-05-16T00:53:25.191Z,1005.04
2019-05-16T00:54:29.881Z,1005
2019-05-16T00:55:35.400Z,1005.03
2019-05-16T00:56:34.893Z,1005.04
2019-05-16T00:57:38.995Z,1004.97
2019-05-16T00:58:43.238Z,1005.03
2019-05-16T00:59:41.211Z,1004.98
2019-05-16T01:00:39.387Z,1005
2019-05-16T01:01:40.410Z,1004.98
2019-05-16T01:02:40.256Z,1004.98
2019-05-16T01:03:39.584Z,1004.91
2019-05-16T01:04:38.142Z,1005.03
2019-05-16T01:05:38.897Z,1004.97
2019-05-16T01:06:38.043Z,1004.98
2019-05-16T01:07:39.283Z,1004.89
2019-05-16T01:08:38.562Z,1004.88
2019-05-16T01:09:38.586Z,1004.91
2019-05-16T01:10:50.945Z,1004.88
2019-05-16T01:10:51.737Z,1004.88
2019-05-16T01:11:48.510Z,1004.79
2019-05-16T01:12:53.311Z,1004.83
2019-05-16T01:13:57.908Z,1004.85
2019-05-16T01:14:58.604Z,1004.83
2019-05-16T01:16:08.823Z,1004.82
2019-05-16T01:17:12.203Z,1004.82
2019-05-16T01:18:10.946Z,1004.8
2019-05-16T01:19:18.648Z,1004.8
2019-05-16T01:20:19.187Z,1004.76
2019-05-16T01:21:18.603Z,1004.75
2019-05-16T01:22:22.331Z,1004.68
2019-05-16T01:23:20.656Z,1004.75
2019-05-16T01:24:20.784Z,1004.79
2019-05-16T01:25:19.961Z,1004.67
2019-05-16T01:26:18.670Z,1004.62
2019-05-16T01:27:18.529Z,1004.62
2019-05-16T01:28:22.088Z,1004.61
2019-05-16T01:29:22.290Z,1004.58
2019-05-16T01:30:28.640Z,1004.65
2019-05-16T01:31:31.120Z,1004.62
2019-05-16T01:32:32.143Z,1004.61
2019-05-16T01:33:33.908Z,1004.64
2019-05-16T01:34:31.941Z,1004.58
2019-05-16T01:35:35.789Z,1004.58
2019-05-16T01:36:37.975Z,1004.58
2019-05-16T01:36:40.838Z,1004.58
2019-05-16T01:37:32.758Z,1004.56
2019-05-16T01:38:31.805Z,1004.62
2019-05-16T01:39:32.336Z,1004.65
2019-05-16T01:40:33.033Z,1004.62
2019-05-16T01:41:31.425Z,1004.52
2019-05-16T01:42:30.048Z,1004.52
2019-05-16T01:43:29.118Z,1004.55
2019-05-16T01:44:28.814Z,1004.5
2019-05-16T01:45:27.848Z,1004.49
2019-05-16T01:46:32.253Z,1004.49
2019-05-16T01:47:30.306Z,1004.53
2019-05-16T01:48:30.854Z,1004.44
2019-05-16T01:49:30.332Z,1004.49
2019-05-16T01:50:28.449Z,1004.55
2019-05-16T01:51:26.191Z,1004.41
2019-05-16T01:52:25.933Z,1004.43
2019-05-16T01:53:27.801Z,1004.46
2019-05-16T01:54:24.896Z,1004.46
2019-05-16T01:55:24.878Z,1004.43
2019-05-16T01:56:22.858Z,1004.33
2019-05-16T01:57:21.557Z,1004.43
2019-05-16T01:58:23.583Z,1004.38
2019-05-16T01:59:24.237Z,1004.43
2019-05-16T02:00:35.506Z,1004.44
2019-05-16T02:00:36.871Z,1004.44
2019-05-16T02:00:47.826Z,1004.44
2019-05-16T02:01:32.360Z,1004.41
2019-05-16T02:02:38.316Z,1004.46
2019-05-16T02:03:40.094Z,1004.4
2019-05-16T02:04:40.288Z,1004.44
2019-05-16T02:05:38.932Z,1004.43
2019-05-16T02:06:50.090Z,1004.43
2019-05-16T02:06:51.699Z,1004.43
2019-05-16T02:06:54.302Z,1004.43
2019-05-16T02:07:42.367Z,1004.4
2019-05-16T02:08:44.301Z,1004.37
2019-05-16T02:09:47.694Z,1004.39
2019-05-16T02:10:49.410Z,1004.39
2019-05-16T02:11:48.169Z,1004.34
2019-05-16T02:12:46.265Z,1004.46
2019-05-16T02:13:44.772Z,1004.38
2019-05-16T02:14:48.128Z,1004.34
2019-05-16T02:15:46.002Z,1004.38
2019-05-16T02:16:44.477Z,1004.3
2019-05-16T02:17:48.514Z,1004.36
2019-05-16T02:18:48.841Z,1004.37
2019-05-16T02:19:48.501Z,1004.33
2019-05-16T02:20:44.853Z,1004.31
2019-05-16T02:21:50.678Z,1004.38
2019-05-16T02:22:53.157Z,1004.31
2019-05-16T02:23:51.661Z,1004.34
2019-05-16T02:24:49.057Z,1004.3
2019-05-16T02:25:52.039Z,1004.27
2019-05-16T02:26:52.492Z,1004.24
2019-05-16T02:27:50.748Z,1004.13
2019-05-16T02:28:54.734Z,1004.04
2019-05-16T02:29:53.534Z,1004.18
2019-05-16T02:30:52.359Z,1004.06
2019-05-16T02:31:52.796Z,1004.04
2019-05-16T02:33:00.825Z,1004.12
2019-05-16T02:33:56.318Z,1004.07
2019-05-16T02:34:55.414Z,1004.03
2019-05-16T02:35:55.787Z,1004.12
2019-05-16T02:37:10.269Z,1004
2019-05-16T02:37:14.659Z,1004
2019-05-16T02:37:19.064Z,1004
2019-05-16T02:37:55.317Z,1004
2019-05-16T02:38:55.417Z,1004.07
2019-05-16T02:39:54.514Z,1004.13
2019-05-16T02:40:57.879Z,1004.16
2019-05-16T02:42:01.010Z,1004.15
2019-05-16T02:42:56.600Z,1004.13
2019-05-16T02:43:56.086Z,1004.13
2019-05-16T02:44:54.630Z,1004.07
2019-05-16T02:45:52.598Z,1004.18
2019-05-16T02:46:51.047Z,1004.09
2019-05-16T02:47:51.321Z,1004.1
2019-05-16T02:48:51.584Z,1004.03
2019-05-16T02:49:46.684Z,1004.06
2019-05-16T02:50:46.954Z,1004.07
2019-05-16T02:51:46.797Z,1004.06
2019-05-16T02:52:45.445Z,1004.13
2019-05-16T02:53:54.590Z,1004.06
2019-05-16T02:54:53.254Z,1004.12
2019-05-16T02:55:52.490Z,1004.13
2019-05-16T02:57:01.362Z,1004.16
2019-05-16T02:58:00.722Z,1004.1
2019-05-16T02:59:01.407Z,1004.13
2019-05-16T03:00:01.492Z,1004.1
2019-05-16T03:01:01.462Z,1004.13
2019-05-16T03:02:00.900Z,1004.06
2019-05-16T03:03:01.167Z,1004.07
2019-05-16T03:04:02.526Z,1004.03
2019-05-16T03:05:05.937Z,1004.06
2019-05-16T03:06:05.098Z,1003.93
2019-05-16T03:07:06.463Z,1003.97
2019-05-16T03:08:05.027Z,1004.01
2019-05-16T03:09:11.304Z,1003.91
2019-05-16T03:10:11.097Z,1004
2019-05-16T03:11:11.602Z,1003.94
2019-05-16T03:12:06.136Z,1003.9
2019-05-16T03:13:04.858Z,1003.87
2019-05-16T03:14:06.168Z,1003.93
2019-05-16T03:15:07.033Z,1003.85
2019-05-16T03:16:05.966Z,1003.87
2019-05-16T03:17:03.735Z,1003.81
2019-05-16T03:18:04.543Z,1003.75
2019-05-16T03:19:04.044Z,1003.82
2019-05-16T03:20:07.032Z,1003.66
2019-05-16T03:21:05.085Z,1003.79
2019-05-16T03:22:05.946Z,1003.63
2019-05-16T03:23:06.906Z,1003.62
2019-05-16T03:24:11.277Z,1003.62
2019-05-16T03:25:11.389Z,1003.62
2019-05-16T03:26:07.128Z,1003.65
2019-05-16T03:27:10.818Z,1003.65
2019-05-16T03:28:10.903Z,1003.69
2019-05-16T03:29:11.249Z,1003.6
2019-05-16T03:30:07.990Z,1003.69
2019-05-16T03:31:07.041Z,1003.72
2019-05-16T03:32:05.867Z,1003.65
2019-05-16T03:33:05.635Z,1003.63
2019-05-16T03:34:07.201Z,1003.65
2019-05-16T03:35:05.563Z,1003.62
2019-05-16T03:36:05.811Z,1003.69
2019-05-16T03:37:05.040Z,1003.68
2019-05-16T03:38:05.589Z,1003.6
2019-05-16T03:39:03.667Z,1003.6
2019-05-16T03:40:01.647Z,1003.7
2019-05-16T03:41:01.209Z,1003.69
2019-05-16T03:42:05.088Z,1003.65
2019-05-16T03:43:11.359Z,1003.54
2019-05-16T03:44:06.728Z,1003.66
2019-05-16T03:45:10.826Z,1003.7
2019-05-16T03:46:11.798Z,1003.66
2019-05-16T03:47:12.393Z,1003.65
2019-05-16T03:48:14.786Z,1003.65
2019-05-16T03:49:16.591Z,1003.62
2019-05-16T03:50:15.765Z,1003.63
2019-05-16T03:51:14.533Z,1003.64
2019-05-16T03:52:14.859Z,1003.67
2019-05-16T03:53:21.600Z,1003.64
2019-05-16T03:54:21.234Z,1003.67
2019-05-16T03:55:21.837Z,1003.64
2019-05-16T03:56:23.657Z,1003.62
2019-05-16T03:57:26.828Z,1003.67
2019-05-16T03:58:30.793Z,1003.72
2019-05-16T03:59:25.879Z,1003.67
2019-05-16T04:00:24.405Z,1003.7
2019-05-16T04:01:23.571Z,1003.66
2019-05-16T04:02:23.443Z,1003.69
2019-05-16T04:03:21.487Z,1003.66
2019-05-16T04:04:33.574Z,1003.67
2019-05-16T04:05:32.080Z,1003.64
2019-05-16T04:06:31.218Z,1003.66
2019-05-16T04:07:35.802Z,1003.63
2019-05-16T04:08:36.753Z,1003.72
2019-05-16T04:09:41.275Z,1003.64
2019-05-16T04:10:42.901Z,1003.6
2019-05-16T04:11:42.572Z,1003.57
2019-05-16T04:12:41.862Z,1003.63
2019-05-16T04:13:41.137Z,1003.61
2019-05-16T04:14:40.982Z,1003.6
2019-05-16T04:15:43.085Z,1003.57
2019-05-16T04:16:47.072Z,1003.6
2019-05-16T04:17:51.226Z,1003.64
2019-05-16T04:19:01.888Z,1003.73
2019-05-16T04:20:04.880Z,1003.63
2019-05-16T04:21:04.193Z,1003.66
2019-05-16T04:22:03.585Z,1003.69
2019-05-16T04:23:01.270Z,1003.57
2019-05-16T04:24:01.379Z,1003.64
2019-05-16T04:25:02.493Z,1003.63
2019-05-16T04:26:01.492Z,1003.63
2019-05-16T04:27:02.082Z,1003.66
2019-05-16T04:28:01.135Z,1003.64
2019-05-16T04:29:12.047Z,1003.64
2019-05-16T04:30:15.295Z,1003.61
2019-05-16T04:31:14.086Z,1003.63
2019-05-16T04:32:21.107Z,1003.58
2019-05-16T04:33:21.914Z,1003.56
2019-05-16T04:34:20.656Z,1003.57
2019-05-16T04:35:17.634Z,1003.6
2019-05-16T04:36:17.545Z,1003.64
2019-05-16T04:40:15.739Z,1003.59
2019-05-16T04:41:21.186Z,1003.66
2019-05-16T04:42:17.696Z,1003.75
2019-05-16T04:43:21.590Z,1003.69
2019-05-16T04:44:23.653Z,1003.6
2019-05-16T04:45:23.383Z,1003.62
2019-05-16T04:46:22.066Z,1003.63
2019-05-16T04:47:23.727Z,1003.6
2019-05-16T04:48:23.080Z,1003.62
2019-05-16T04:49:21.505Z,1003.63
2019-05-16T04:50:24.768Z,1003.63
2019-05-16T04:51:26.640Z,1003.66
2019-05-16T04:52:26.774Z,1003.59
2019-05-16T04:53:27.508Z,1003.58
2019-05-16T04:54:26.607Z,1003.63
2019-05-16T04:55:26.426Z,1003.66
2019-05-16T04:56:25.726Z,1003.61
2019-05-16T04:57:24.756Z,1003.66
2019-05-16T04:58:24.128Z,1003.66
2019-05-16T04:59:21.914Z,1003.57
2019-05-16T05:00:25.706Z,1003.6
2019-05-16T05:01:25.077Z,1003.57
2019-05-16T05:02:30.653Z,1003.54
2019-05-16T05:03:31.271Z,1003.45
2019-05-16T05:04:30.253Z,1003.5
2019-05-16T05:05:25.826Z,1003.53
2019-05-16T05:06:31.240Z,1003.51
2019-05-16T05:07:31.328Z,1003.54
2019-05-16T05:08:30.740Z,1003.48
2019-05-16T05:08:49.278Z,1003.48
2019-05-16T05:08:50.510Z,1003.48
2019-05-16T05:09:28.100Z,1003.64
2019-05-16T05:10:26.939Z,1003.45
2019-05-16T05:11:27.308Z,1003.44
2019-05-16T05:12:27.486Z,1003.5
2019-05-16T05:13:26.302Z,1003.48
2019-05-16T05:14:25.366Z,1003.48
2019-05-16T05:15:25.458Z,1003.5
2019-05-16T05:16:24.704Z,1003.47
2019-05-16T05:17:23.099Z,1003.47
2019-05-16T05:18:30.302Z,1003.5
2019-05-16T05:19:27.066Z,1003.44
2019-05-16T05:20:30.910Z,1003.51
2019-05-16T05:21:40.970Z,1003.47
2019-05-16T05:22:39.788Z,1003.47
2019-05-16T05:23:41.471Z,1003.48
2019-05-16T05:24:40.587Z,1003.5
2019-05-16T05:25:42.160Z,1003.5
2019-05-16T05:26:47.156Z,1003.44
2019-05-16T05:27:46.950Z,1003.48
2019-05-16T05:28:45.094Z,1003.48
2019-05-16T05:29:43.422Z,1003.5
2019-05-16T05:30:46.472Z,1003.42
2019-05-16T05:31:45.853Z,1003.54
2019-05-16T05:32:50.230Z,1003.47
2019-05-16T05:33:56.201Z,1003.48
2019-05-16T05:34:59.855Z,1003.44
2019-05-16T05:36:01.161Z,1003.41
2019-05-16T05:36:57.157Z,1003.41
2019-05-16T05:38:00.374Z,1003.23
2019-05-16T05:39:11.545Z,1003.36
2019-05-16T05:39:11.741Z,1003.36
2019-05-16T05:39:15.364Z,1003.36
2019-05-16T05:40:05.406Z,1003.3
2019-05-16T05:41:04.144Z,1003.3
2019-05-16T05:42:02.890Z,1003.36
2019-05-16T05:43:02.507Z,1003.44
2019-05-16T05:44:11.513Z,1003.35
2019-05-16T05:45:11.182Z,1003.36
2019-05-16T05:46:10.985Z,1003.39
2019-05-16T05:47:10.769Z,1003.39
2019-05-16T05:48:17.265Z,1003.35
2019-05-16T05:49:16.396Z,1003.34
2019-05-16T05:50:13.225Z,1003.36
2019-05-16T05:51:11.603Z,1003.35
2019-05-16T05:52:12.470Z,1003.35
2019-05-16T05:53:10.616Z,1003.38
2019-05-16T05:54:10.871Z,1003.42
2019-05-16T05:55:07.315Z,1003.39
2019-05-16T05:56:07.193Z,1003.48
2019-05-16T05:57:09.919Z,1003.44
2019-05-16T05:58:09.880Z,1003.38
2019-05-16T05:59:06.574Z,1003.39
2019-05-16T06:00:05.323Z,1003.44
2019-05-16T06:01:07.130Z,1003.45
2019-05-16T06:02:11.229Z,1003.39
2019-05-16T06:03:11.708Z,1003.56
2019-05-16T06:04:10.815Z,1003.42
2019-05-16T06:05:10.692Z,1003.57
2019-05-16T06:06:10.607Z,1003.47
2019-05-16T06:07:10.021Z,1003.54
2019-05-16T06:08:05.739Z,1003.48
2019-05-16T06:09:04.532Z,1003.61
2019-05-16T06:10:07.290Z,1003.58
2019-05-16T06:11:05.396Z,1003.48
2019-05-16T06:12:07.405Z,1003.58
2019-05-16T06:13:03.810Z,1003.55
2019-05-16T06:14:06.120Z,1003.51
2019-05-16T06:15:09.021Z,1003.51
2019-05-16T06:15:12.936Z,1003.51
2019-05-16T06:16:10.574Z,1003.44
2019-05-16T06:17:11.510Z,1003.48
2019-05-16T06:18:10.918Z,1003.48
2019-05-16T06:19:15.056Z,1003.5
2019-05-16T06:20:14.882Z,1003.41
2019-05-16T06:21:12.707Z,1003.44
2019-05-16T06:22:12.845Z,1003.45
2019-05-16T06:23:11.876Z,1003.33
2019-05-16T06:24:16.230Z,1003.39
2019-05-16T06:25:22.643Z,1003.42
2019-05-16T06:26:20.586Z,1003.47
2019-05-16T06:27:21.116Z,1003.36
2019-05-16T06:28:21.300Z,1003.44
2019-05-16T06:29:23.528Z,1003.35
2019-05-16T06:30:30.202Z,1003.36
2019-05-16T06:31:31.267Z,1003.36
2019-05-16T06:32:30.407Z,1003.33
2019-05-16T06:33:30.519Z,1003.25
2019-05-16T06:34:30.189Z,1003.3
2019-05-16T06:35:31.259Z,1003.21
2019-05-16T06:36:30.521Z,1003.34
2019-05-16T06:37:32.257Z,1003.23
2019-05-16T06:38:34.225Z,1003.3
2019-05-16T06:39:42.066Z,1003.36
2019-05-16T06:39:42.702Z,1003.36
2019-05-16T06:39:45.314Z,1003.36
2019-05-16T06:40:32.425Z,1003.3
2019-05-16T06:41:32.814Z,1003.26
2019-05-16T06:42:40.252Z,1003.3
2019-05-16T06:43:47.643Z,1003.3
2019-05-16T06:44:46.396Z,1003.24
2019-05-16T06:45:46.335Z,1003.23
2019-05-16T06:46:59.630Z,1003.24
2019-05-16T06:47:07.432Z,1003.24
2019-05-16T06:47:09.928Z,1003.24
2019-05-16T06:47:57.116Z,1003.21
2019-05-16T06:49:03.185Z,1003.2
2019-05-16T06:50:05.553Z,1003.17
2019-05-16T06:51:03.681Z,1003.17
2019-05-16T06:52:07.576Z,1003.2
2019-05-16T06:53:05.938Z,1003.11
2019-05-16T06:54:06.393Z,1003.23
2019-05-16T06:55:06.994Z,1003.18
2019-05-16T06:56:07.800Z,1003.18
2019-05-16T06:57:06.723Z,1003.22
2019-05-16T06:58:06.266Z,1003.2
2019-05-16T06:59:11.093Z,1003.21
2019-05-16T07:00:11.587Z,1003.18
2019-05-16T07:01:13.997Z,1003.2
2019-05-16T07:02:26.728Z,1003.15
2019-05-16T07:02:27.608Z,1003.15
2019-05-16T07:02:30.415Z,1003.15
2019-05-16T07:03:12.762Z,1003.21
2019-05-16T07:04:10.888Z,1003.25
2019-05-16T07:05:10.171Z,1003.2
2019-05-16T07:06:09.813Z,1003.2
2019-05-16T07:06:29.862Z,1003.2
2019-05-16T07:06:46.040Z,1003.2
2019-05-16T07:07:12.680Z,1003.2
2019-05-16T07:08:10.439Z,1003.2
2019-05-16T07:09:10.669Z,1003.2
2019-05-16T07:10:10.132Z,1003.21
2019-05-16T07:11:10.571Z,1003.09
2019-05-16T07:12:10.335Z,1003.08
2019-05-16T07:13:10.445Z,1003.09
2019-05-16T07:14:14.333Z,1003.14
2019-05-16T07:15:12.810Z,1003.17
2019-05-16T07:16:12.944Z,1003.05
2019-05-16T07:17:11.390Z,1003.2
2019-05-16T07:18:12.954Z,1003.09
2019-05-16T07:19:15.577Z,1003.03
2019-05-16T07:20:14.762Z,1003.02
2019-05-16T07:21:13.640Z,1003.05
2019-05-16T07:22:12.791Z,1003
2019-05-16T07:23:11.839Z,1003.02
2019-05-16T07:24:12.367Z,1002.94
2019-05-16T07:25:11.547Z,1002.96
2019-05-16T07:26:10.319Z,1002.89
2019-05-16T07:27:11.521Z,1002.96
2019-05-16T07:28:14.167Z,1002.96
2019-05-16T07:29:16.885Z,1002.91
2019-05-16T07:30:16.573Z,1002.93
2019-05-16T07:31:30.064Z,1002.93
2019-05-16T07:32:30.175Z,1002.93
2019-05-16T07:33:36.706Z,1002.97
2019-05-16T07:34:35.495Z,1002.84
2019-05-16T07:35:42.563Z,1002.88
2019-05-16T07:36:40.791Z,1002.89
2019-05-16T07:37:39.929Z,1002.87
2019-05-16T07:38:37.310Z,1002.87
2019-05-16T07:39:38.706Z,1002.78
2019-05-16T07:39:41.973Z,1002.78
2019-05-16T07:40:35.278Z,1002.82
2019-05-16T07:41:40.966Z,1002.78
2019-05-16T07:42:40.395Z,1002.7
2019-05-16T07:43:42.738Z,1002.72
2019-05-16T07:44:46.189Z,1002.69
2019-05-16T07:45:44.535Z,1002.73
2019-05-16T07:46:44.718Z,1002.75
2019-05-16T07:47:46.319Z,1002.78
2019-05-16T07:48:46.273Z,1002.66
2019-05-16T07:49:46.133Z,1002.7
2019-05-16T07:50:45.842Z,1002.7
2019-05-16T07:51:49.848Z,1002.69
2019-05-16T07:52:51.201Z,1002.72
2019-05-16T07:53:47.161Z,1002.73
2019-05-16T07:54:50.952Z,1002.75
2019-05-16T07:55:52.450Z,1002.67
2019-05-16T07:56:59.620Z,1002.63
2019-05-16T07:57:08.013Z,1002.63
2019-05-16T07:57:12.275Z,1002.63
2019-05-16T07:57:50.982Z,1002.63
2019-05-16T07:58:50.797Z,1002.66
2019-05-16T07:59:50.729Z,1002.6
2019-05-16T08:00:57.877Z,1002.59
2019-05-16T08:01:02.854Z,1002.59
2019-05-16T08:01:04.479Z,1002.59
2019-05-16T08:02:00.594Z,1002.6
2019-05-16T08:03:01.314Z,1002.57
2019-05-16T08:04:04.998Z,1002.66
2019-05-16T08:05:04.680Z,1002.57
2019-05-16T08:06:02.814Z,1002.54
2019-05-16T08:07:05.810Z,1002.59
2019-05-16T08:08:04.363Z,1002.53
2019-05-16T08:09:07.628Z,1002.51
2019-05-16T08:10:03.884Z,1002.53
2019-05-16T08:11:06.757Z,1002.5
2019-05-16T08:12:07.302Z,1002.51
2019-05-16T08:13:13.298Z,1002.53
2019-05-16T08:14:16.618Z,1002.48
2019-05-16T08:15:16.697Z,1002.5
2019-05-16T08:16:15.031Z,1002.48
2019-05-16T08:17:13.711Z,1002.47
2019-05-16T08:18:14.104Z,1002.51
2019-05-16T08:19:16.768Z,1002.48
2019-05-16T08:20:15.215Z,1002.48
2019-05-16T08:21:17.840Z,1002.48
2019-05-16T08:22:16.764Z,1002.45
2019-05-16T08:23:15.626Z,1002.51
2019-05-16T08:24:15.255Z,1002.48
2019-05-16T08:25:13.401Z,1002.47
2019-05-16T08:26:11.757Z,1002.44
2019-05-16T08:27:12.146Z,1002.45
2019-05-16T08:28:11.701Z,1002.44
2019-05-16T08:29:13.347Z,1002.42
2019-05-16T08:30:10.940Z,1002.35
2019-05-16T08:31:11.717Z,1002.39
2019-05-16T08:32:12.686Z,1002.42
2019-05-16T08:33:21.307Z,1002.39
2019-05-16T08:34:16.855Z,1002.35
2019-05-16T08:35:20.851Z,1002.32
2019-05-16T08:36:20.648Z,1002.32
2019-05-16T08:37:42.607Z,1002.32
2019-05-16T08:38:24.224Z,1002.29
2019-05-16T08:39:24.029Z,1002.31
2019-05-16T08:40:25.657Z,1002.26
2019-05-16T08:41:27.564Z,1002.26
2019-05-16T08:42:25.781Z,1002.26
2019-05-16T08:43:24.837Z,1002.22
2019-05-16T08:44:27.396Z,1002.22
2019-05-16T08:45:25.497Z,1002.29
2019-05-16T08:46:25.801Z,1002.17
2019-05-16T08:47:27.304Z,1002.22
2019-05-16T08:48:25.810Z,1002.25
2019-05-16T08:49:25.207Z,1002.25
2019-05-16T08:50:24.323Z,1002.2
2019-05-16T08:51:23.003Z,1002.25
2019-05-16T08:52:22.487Z,1002.17
2019-05-16T08:53:25.103Z,1002.28
2019-05-16T08:54:25.928Z,1002.2
2019-05-16T08:55:24.099Z,1002.19
2019-05-16T08:56:26.452Z,1002.23
2019-05-16T08:57:32.672Z,1002.16
2019-05-16T08:58:34.460Z,1002.23
2019-05-16T08:59:33.998Z,1002.11
2019-05-16T09:00:33.507Z,1002.23
2019-05-16T09:01:35.167Z,1002.2
2019-05-16T09:02:36.967Z,1002.17
2019-05-16T09:03:34.264Z,1002.25
2019-05-16T09:04:36.409Z,1002.17
2019-05-16T09:05:42.641Z,1002.13
2019-05-16T09:06:42.438Z,1002.2
2019-05-16T09:07:40.239Z,1002.22
2019-05-16T09:08:42.897Z,1002.14
2019-05-16T09:09:48.892Z,1002.17
2019-05-16T09:09:51.122Z,1002.17
2019-05-16T09:09:52.342Z,1002.17
2019-05-16T09:10:11.000Z,1002.32
2019-05-16T09:10:34.258Z,1002.32
2019-05-16T09:10:59.111Z,1002.16
2019-05-16T09:11:00.868Z,1002.16
2019-05-16T09:11:02.080Z,1002.16
2019-05-16T09:11:48.701Z,1002.22
2019-05-16T09:12:47.750Z,1002.13
2019-05-16T09:13:47.833Z,1002.12
2019-05-16T09:14:48.101Z,1002.09
2019-05-16T09:15:47.868Z,1002.1
2019-05-16T09:16:51.165Z,1002.18
2019-05-16T09:17:50.811Z,1002.04
2019-05-16T09:18:57.370Z,1002.1
2019-05-16T09:19:57.809Z,1002.09
2019-05-16T09:20:58.282Z,1002.04
2019-05-16T09:21:58.029Z,1002.16
2019-05-16T09:22:57.846Z,1002.01
2019-05-16T09:23:54.277Z,1002.13
2019-05-16T09:24:57.656Z,1002.06
2019-05-16T09:25:58.642Z,1002.01
2019-05-16T09:26:57.919Z,1002.09
2019-05-16T09:27:57.023Z,1002.04
2019-05-16T09:28:57.021Z,1001.98
2019-05-16T09:30:00.457Z,1001.94
2019-05-16T09:30:58.887Z,1001.91
2019-05-16T09:32:08.873Z,1001.97
2019-05-16T09:32:12.770Z,1001.97
2019-05-16T09:32:20.268Z,1001.97
2019-05-16T09:32:58.887Z,1001.89
2019-05-16T09:33:56.929Z,1002.01
2019-05-16T09:34:57.337Z,1002.04
2019-05-16T09:36:07.813Z,1001.97
2019-05-16T09:37:08.147Z,1001.92
2019-05-16T09:38:07.619Z,1001.97
2019-05-16T09:39:08.361Z,1001.95
2019-05-16T09:40:09.990Z,1001.92
2019-05-16T09:41:09.877Z,1001.97
2019-05-16T09:42:08.967Z,1001.97
2019-05-16T09:43:08.869Z,1001.92
2019-05-16T09:44:09.144Z,1001.85
2019-05-16T09:45:08.694Z,1001.89
2019-05-16T09:46:12.591Z,1001.91
2019-05-16T09:47:20.095Z,1001.89
2019-05-16T09:48:22.647Z,1001.91
2019-05-16T09:49:28.767Z,1001.83
2019-05-16T09:49:29.380Z,1001.83
2019-05-16T09:50:27.982Z,1001.94
2019-05-16T09:51:30.575Z,1001.88
2019-05-16T09:52:32.868Z,1001.84
2019-05-16T09:53:40.093Z,1001.83
2019-05-16T09:54:38.295Z,1001.79
2019-05-16T09:55:47.057Z,1001.83
2019-05-16T09:56:46.593Z,1001.83
2019-05-16T09:57:48.914Z,1001.78
2019-05-16T09:58:50.229Z,1001.72
2019-05-16T09:59:49.929Z,1001.79
2019-05-16T10:00:48.606Z,1001.81
2019-05-16T10:01:50.381Z,1001.82
2019-05-16T10:02:48.766Z,1001.85
2019-05-16T10:03:48.753Z,1001.83
2019-05-16T10:04:54.474Z,1001.85
2019-05-16T10:05:53.757Z,1001.78
2019-05-16T10:06:53.179Z,1001.88
2019-05-16T10:07:57.312Z,1001.78
2019-05-16T10:08:56.955Z,1001.82
2019-05-16T10:09:53.840Z,1001.82
2019-05-16T10:10:53.181Z,1001.73
2019-05-16T10:12:07.174Z,1001.75
2019-05-16T10:12:08.123Z,1001.75
2019-05-16T10:12:11.345Z,1001.75
2019-05-16T10:12:51.878Z,1001.69
2019-05-16T10:13:54.387Z,1001.76
2019-05-16T10:14:54.612Z,1001.64
2019-05-16T10:15:54.814Z,1001.67
2019-05-16T10:16:54.713Z,1001.66
2019-05-16T10:17:57.358Z,1001.63
2019-05-16T10:18:53.328Z,1001.55
2019-05-16T10:19:51.680Z,1001.48
2019-05-16T10:20:51.305Z,1001.63
2019-05-16T10:21:50.555Z,1001.58
2019-05-16T10:22:50.558Z,1001.47
2019-05-16T10:23:49.701Z,1001.55
2019-05-16T10:24:49.385Z,1001.51
2019-05-16T10:25:48.655Z,1001.4
2019-05-16T10:26:53.842Z,1001.43
2019-05-16T10:26:54.386Z,1001.43
2019-05-16T10:27:51.288Z,1001.54
2019-05-16T10:29:00.055Z,1001.47
2019-05-16T10:30:01.057Z,1001.37
2019-05-16T10:30:58.861Z,1001.51
2019-05-16T10:31:59.735Z,1001.36
2019-05-16T10:33:08.431Z,1001.39
2019-05-16T10:34:07.999Z,1001.37
2019-05-16T10:35:07.577Z,1001.3
2019-05-16T10:36:08.547Z,1001.4
2019-05-16T10:37:06.983Z,1001.31
2019-05-16T10:38:06.176Z,1001.25
2019-05-16T10:39:07.288Z,1001.23
2019-05-16T10:40:03.913Z,1001.25
2019-05-16T10:41:11.411Z,1001.31
2019-05-16T10:42:23.544Z,1001.24
2019-05-16T10:42:27.427Z,1001.24
2019-05-16T10:42:28.772Z,1001.24
2019-05-16T10:43:10.252Z,1001.3
2019-05-16T10:44:09.774Z,1001.21
2019-05-16T10:45:08.993Z,1001.23
2019-05-16T10:46:11.470Z,1001.39
2019-05-16T10:47:18.532Z,1001.15
2019-05-16T10:48:17.717Z,1001.24
2019-05-16T10:49:33.249Z,1001.23
2019-05-16T10:49:34.336Z,1001.23
2019-05-16T10:49:37.083Z,1001.23
2019-05-16T10:50:20.981Z,1001.21
2019-05-16T10:51:27.120Z,1001.28
2019-05-16T10:52:27.108Z,1001.24
2019-05-16T10:53:54.746Z,1001.17
2019-05-16T10:53:58.061Z,1001.17
2019-05-16T10:54:00.630Z,1001.17
2019-05-16T10:54:27.577Z,1001.12
2019-05-16T10:55:29.738Z,1001.2
2019-05-16T10:56:28.803Z,1001.09
2019-05-16T10:57:31.814Z,1001.18
2019-05-16T10:58:36.920Z,1001.12
2019-05-16T10:58:52.002Z,1001.12
2019-05-16T10:59:04.124Z,1001.12
2019-05-16T10:59:58.626Z,1001.09
2019-05-16T11:00:08.979Z,1001.09
2019-05-16T11:01:05.077Z,1001.05
2019-05-16T11:01:07.654Z,1001.05
2019-05-16T11:01:09.913Z,1001.05
2019-05-16T11:01:38.622Z,1001.09
2019-05-16T11:02:41.603Z,1001.03
2019-05-16T11:03:42.493Z,1001.01
2019-05-16T11:04:53.312Z,1000.99
2019-05-16T11:04:57.409Z,1000.99
2019-05-16T11:05:00.116Z,1000.99
2019-05-16T11:05:43.246Z,1000.99
2019-05-16T11:06:52.693Z,1000.95
2019-05-16T11:07:53.364Z,1000.92
2019-05-16T11:08:50.807Z,1000.9
2019-05-16T11:10:01.420Z,1000.84
2019-05-16T11:10:03.469Z,1000.84
2019-05-16T11:10:57.115Z,1000.86
2019-05-16T11:11:59.959Z,1000.96
2019-05-16T11:12:59.803Z,1000.93
2019-05-16T11:14:00.152Z,1000.92
2019-05-16T11:15:01.216Z,1000.89
2019-05-16T11:16:09.121Z,1000.86
2019-05-16T11:17:11.672Z,1000.81
2019-05-16T11:17:13.340Z,1000.81
2019-05-16T11:18:06.873Z,1000.86
2019-05-16T11:19:17.309Z,1000.96
2019-05-16T11:19:17.948Z,1000.96
2019-05-16T11:19:21.280Z,1000.96
2019-05-16T11:20:07.600Z,1000.99
2019-05-16T11:21:07.210Z,1000.98
2019-05-16T11:22:08.265Z,1000.84
2019-05-16T11:23:08.472Z,1000.74
2019-05-16T11:24:12.336Z,1000.78
2019-05-16T11:24:13.326Z,1000.78
2019-05-16T11:25:20.211Z,1000.74